Algeciras, Spain
Current Conditions -  °F | °C
As of 9:30 AM on Friday 28 Nov 2014 (Local Time) from LEAG Reporting Station
Light Rain Light Rain  
Wind Chill: 59°   Ceiling: 2300
Heat Index: 59°   Visibility: 6mi
Dew Point: 54°   Wind: 9mph
Humidity: 82%   Direction: 220°SW
Pressure: 29.09"   Gusts: NA
Location:  36.13°N, 5.45°W
Report Text: LEAG 280830Z AUTO 22008KT 170V300 9999 -RA BKN023 BKN02815/12 Q0985
Loading
Personal Weather Stations






























Interactive Weather Map New forecast layout! Learn more

10-Day Weather Forecast

Advertisements
Track Severe Weather on mobile